createdAt,value
2022-08-30T00:01:03.184Z,1.73
2022-08-30T00:03:33.038Z,1.98
2022-08-30T00:06:00.323Z,1.58
2022-08-30T00:08:27.339Z,1.83
2022-08-30T00:10:54.030Z,1.77
2022-08-30T00:13:22.511Z,1.90
2022-08-30T00:15:50.299Z,1.85
2022-08-30T00:18:18.899Z,2.28
2022-08-30T00:20:47.601Z,1.73
2022-08-30T00:23:14.611Z,1.80
2022-08-30T00:25:41.795Z,1.85
2022-08-30T00:28:09.739Z,1.52
2022-08-30T00:30:36.676Z,1.60
2022-08-30T00:33:03.885Z,2.30
2022-08-30T00:37:58.099Z,1.80
2022-08-30T00:40:27.516Z,1.58
2022-08-30T00:42:58.871Z,1.73
2022-08-30T00:45:30.879Z,1.70
2022-08-30T00:47:59.110Z,1.55
2022-08-30T00:50:29.284Z,1.92
2022-08-30T00:53:00.132Z,1.75
2022-08-30T00:55:27.920Z,1.17
2022-08-30T00:57:59.687Z,1.58
2022-08-30T01:00:28.414Z,2.08
2022-08-30T01:02:55.420Z,2.22
2022-08-30T01:05:23.957Z,1.88
2022-08-30T01:07:50.720Z,1.92
2022-08-30T01:10:17.863Z,1.55
2022-08-30T01:12:46.250Z,1.85
2022-08-30T01:15:14.559Z,1.60
2022-08-30T01:17:43.684Z,1.83
2022-08-30T01:20:14.349Z,2.00
2022-08-30T01:22:49.616Z,1.40
2022-08-30T01:25:23.659Z,1.40
2022-08-30T01:28:04.423Z,1.55
2022-08-30T01:30:31.389Z,1.15
2022-08-30T01:33:04.181Z,1.95
2022-08-30T01:35:57.451Z,1.90
2022-08-30T01:38:28.295Z,1.67
2022-08-30T01:41:00.348Z,1.65
2022-08-30T01:43:27.813Z,1.70
2022-08-30T01:45:54.526Z,1.63
2022-08-30T01:48:22.129Z,1.92
2022-08-30T01:50:56.063Z,2.65
2022-08-30T01:53:22.672Z,1.63
2022-08-30T01:55:49.171Z,1.45
2022-08-30T01:58:15.772Z,2.58
2022-08-30T02:00:42.367Z,2.17
2022-08-30T02:03:08.935Z,2.33
2022-08-30T02:05:35.459Z,1.25
2022-08-30T02:08:03.555Z,2.85
2022-08-30T02:10:30.718Z,1.50
2022-08-30T02:12:57.226Z,1.77
2022-08-30T02:15:23.734Z,1.33
2022-08-30T02:17:50.263Z,1.67
2022-08-30T02:20:16.861Z,1.85
2022-08-30T02:22:48.349Z,1.67
2022-08-30T02:25:20.432Z,1.58
2022-08-30T02:27:48.155Z,1.75
2022-08-30T02:30:14.775Z,2.10
2022-08-30T02:32:41.588Z,1.58
2022-08-30T02:35:09.473Z,1.63
2022-08-30T02:37:36.507Z,1.23
2022-08-30T02:40:04.822Z,2.00
2022-08-30T02:42:31.495Z,1.70
2022-08-30T02:44:58.003Z,1.98
2022-08-30T02:47:24.523Z,1.83
2022-08-30T02:49:51.060Z,1.98
2022-08-30T02:52:17.632Z,1.83
2022-08-30T02:54:44.186Z,2.75
2022-08-30T02:57:16.415Z,1.80
2022-08-30T02:59:48.024Z,1.50
2022-08-30T03:02:15.342Z,1.73
2022-08-30T03:07:10.816Z,1.60
2022-08-30T03:12:05.710Z,1.83
2022-08-30T03:14:32.259Z,1.95
2022-08-30T03:16:59.020Z,2.55
2022-08-30T03:19:25.850Z,1.45
2022-08-30T03:21:52.384Z,1.88
2022-08-30T03:24:19.014Z,1.70
2022-08-30T03:26:46.561Z,2.15
2022-08-30T03:29:13.425Z,1.52
2022-08-30T03:31:52.494Z,1.50
2022-08-30T03:34:21.898Z,1.20
2022-08-30T03:36:49.427Z,1.25
2022-08-30T03:39:16.112Z,1.67
2022-08-30T03:41:42.678Z,1.73
2022-08-30T03:44:09.226Z,1.58
2022-08-30T03:46:37.672Z,2.22
2022-08-30T03:49:05.443Z,1.65
2022-08-30T03:51:32.233Z,1.50
2022-08-30T03:53:58.887Z,1.50
2022-08-30T03:56:25.734Z,1.20
2022-08-30T03:58:52.283Z,1.65
2022-08-30T04:01:18.933Z,1.48
2022-08-30T04:03:45.655Z,1.85
2022-08-30T04:06:12.680Z,1.38
2022-08-30T04:08:40.195Z,1.88
2022-08-30T04:11:07.257Z,2.03
2022-08-30T04:13:34.110Z,1.52
2022-08-30T04:16:00.921Z,1.10
2022-08-30T04:18:27.499Z,1.88
2022-08-30T04:20:54.251Z,1.33
2022-08-30T04:23:21.245Z,1.98
2022-08-30T04:25:47.920Z,1.63
2022-08-30T04:28:14.702Z,1.40
2022-08-30T04:30:43.958Z,1.30
2022-08-30T04:33:11.787Z,1.70
2022-08-30T04:35:42.831Z,2.15
2022-08-30T04:38:10.320Z,3.58
2022-08-30T04:40:37.335Z,1.52
2022-08-30T04:43:04.614Z,1.52
2022-08-30T04:47:57.738Z,1.10
2022-08-30T04:50:24.430Z,2.33
2022-08-30T04:52:51.070Z,1.98
2022-08-30T04:55:20.281Z,0.98
2022-08-30T04:57:47.327Z,2.65
2022-08-30T05:00:14.711Z,1.10
2022-08-30T05:02:42.130Z,1.30
2022-08-30T05:05:28.370Z,1.55
2022-08-30T05:07:55.231Z,2.05
2022-08-30T05:10:21.830Z,1.48
2022-08-30T05:12:48.345Z,2.30
2022-08-30T05:15:15.165Z,1.80
2022-08-30T05:17:42.375Z,2.40
2022-08-30T05:20:11.546Z,1.85
2022-08-30T05:22:40.002Z,1.50
2022-08-30T05:25:07.622Z,1.33
2022-08-30T05:27:36.840Z,1.42
2022-08-30T05:30:06.256Z,1.42
2022-08-30T05:32:32.865Z,1.95
2022-08-30T05:34:59.380Z,1.70
2022-08-30T05:37:25.950Z,2.08
2022-08-30T05:39:53.182Z,1.40
2022-08-30T05:44:47.753Z,1.63
2022-08-30T05:47:14.277Z,1.30
2022-08-30T05:49:40.794Z,1.88
2022-08-30T05:52:07.395Z,1.63
2022-08-30T05:54:33.937Z,1.38
2022-08-30T05:57:00.458Z,1.70
2022-08-30T05:59:27.004Z,1.52
2022-08-30T06:01:56.922Z,1.55
2022-08-30T06:04:23.484Z,2.10
2022-08-30T06:06:50.147Z,1.55
2022-08-30T06:09:17.776Z,1.70
2022-08-30T06:11:45.639Z,2.80
2022-08-30T06:14:12.599Z,1.60
2022-08-30T06:16:40.946Z,1.40
2022-08-30T06:19:09.620Z,1.70
2022-08-30T06:21:37.686Z,2.08
2022-08-30T06:24:06.594Z,2.28
2022-08-30T06:26:37.856Z,2.00
2022-08-30T06:29:05.030Z,1.80
2022-08-30T06:31:33.391Z,1.20
2022-08-30T06:33:59.988Z,1.65
2022-08-30T06:36:26.762Z,1.73
2022-08-30T06:38:56.517Z,1.45
2022-08-30T06:41:26.632Z,1.98
2022-08-30T06:43:54.079Z,1.40
2022-08-30T06:46:24.637Z,1.90
2022-08-30T06:48:52.112Z,2.58
2022-08-30T06:51:27.995Z,2.45
2022-08-30T06:53:54.642Z,4.10
2022-08-30T06:56:22.314Z,1.50
2022-08-30T06:58:49.943Z,1.90
2022-08-30T07:01:23.429Z,2.22
2022-08-30T07:03:50.697Z,2.50
2022-08-30T07:08:45.859Z,3.13
2022-08-30T07:11:12.453Z,6.28
2022-08-30T07:13:39.005Z,4.07
2022-08-30T07:16:13.299Z,3.35
2022-08-30T07:18:54.901Z,7.78
2022-08-30T07:21:35.616Z,3.80
2022-08-30T07:24:02.711Z,4.45
2022-08-30T07:26:35.082Z,3.08
2022-08-30T07:29:02.344Z,3.92
2022-08-30T07:33:55.783Z,3.05
2022-08-30T07:36:23.796Z,4.05
2022-08-30T07:38:51.839Z,5.47
2022-08-30T07:41:31.117Z,3.95
2022-08-30T07:43:58.087Z,3.80
2022-08-30T07:46:25.180Z,4.55
2022-08-30T07:48:54.252Z,3.90
2022-08-30T07:51:24.778Z,4.70
2022-08-30T07:53:52.470Z,4.22
2022-08-30T07:56:19.154Z,6.20
2022-08-30T07:58:45.662Z,2.65
2022-08-30T08:01:13.076Z,4.22
2022-08-30T08:03:41.126Z,4.43
2022-08-30T08:06:10.375Z,6.15
2022-08-30T08:08:38.184Z,4.15
2022-08-30T08:11:09.026Z,5.60
2022-08-30T08:13:36.592Z,4.93
2022-08-30T08:16:17.988Z,3.05
2022-08-30T08:18:44.696Z,3.65
2022-08-30T08:21:11.579Z,4.40
2022-08-30T08:23:38.190Z,4.50
2022-08-30T08:26:05.142Z,3.33
2022-08-30T08:28:31.775Z,4.85
2022-08-30T08:30:58.402Z,5.68
2022-08-30T08:33:25.158Z,5.00
2022-08-30T08:35:51.771Z,3.45
2022-08-30T08:38:18.491Z,4.55
2022-08-30T08:41:07.381Z,3.13
2022-08-30T08:43:37.305Z,5.90
2022-08-30T08:46:33.091Z,3.67
2022-08-30T08:49:05.142Z,3.88
2022-08-30T08:51:54.406Z,2.85
2022-08-30T08:54:39.403Z,2.70
2022-08-30T08:57:06.051Z,2.85
2022-08-30T08:59:32.767Z,2.72
2022-08-30T09:02:03.136Z,3.65
2022-08-30T09:04:36.972Z,3.22
2022-08-30T09:07:26.858Z,4.00
2022-08-30T09:09:54.098Z,2.85
2022-08-30T09:14:55.742Z,3.10
2022-08-30T09:17:23.346Z,2.55
2022-08-30T09:19:52.620Z,2.50
2022-08-30T09:22:34.731Z,2.72
2022-08-30T09:25:13.340Z,3.70
2022-08-30T09:27:46.135Z,2.92
2022-08-30T09:30:18.638Z,3.35
2022-08-30T09:32:54.271Z,3.25
2022-08-30T09:35:47.630Z,3.05
2022-08-30T09:38:26.087Z,3.05
2022-08-30T09:40:55.214Z,2.50
2022-08-30T09:43:37.546Z,2.97
2022-08-30T09:46:10.815Z,3.45
2022-08-30T09:48:44.935Z,3.28
2022-08-30T09:51:11.522Z,4.90
2022-08-30T09:56:56.672Z,3.28
2022-08-30T09:59:33.196Z,3.13
2022-08-30T10:02:06.539Z,2.65
2022-08-30T10:07:12.321Z,2.45
2022-08-30T10:10:05.207Z,2.90
2022-08-30T10:13:16.236Z,2.53
2022-08-30T10:16:00.987Z,2.67
2022-08-30T10:18:47.908Z,2.83
2022-08-30T10:21:25.530Z,2.83
2022-08-30T10:24:02.364Z,2.65
2022-08-30T10:26:45.288Z,2.67
2022-08-30T10:29:23.169Z,2.55
2022-08-30T10:31:55.670Z,2.28
2022-08-30T10:34:29.172Z,3.17
2022-08-30T10:37:04.600Z,2.35
2022-08-30T10:39:50.020Z,2.78
2022-08-30T10:42:19.239Z,3.42
2022-08-30T10:44:50.987Z,2.97
2022-08-30T10:47:24.069Z,2.38
2022-08-30T10:49:57.266Z,2.90
2022-08-30T10:52:38.702Z,2.55
2022-08-30T10:55:18.260Z,2.67
2022-08-30T10:57:45.817Z,2.10
2022-08-30T11:00:44.813Z,2.70
2022-08-30T11:03:39.811Z,2.35
2022-08-30T11:06:40.659Z,3.40
2022-08-30T11:09:38.407Z,2.33
2022-08-30T11:12:11.119Z,2.35
2022-08-30T11:14:43.976Z,2.15
2022-08-30T11:17:25.294Z,2.15
2022-08-30T11:19:54.123Z,2.40
2022-08-30T11:22:36.795Z,2.20
2022-08-30T11:25:10.063Z,2.47
2022-08-30T11:28:08.967Z,2.13
2022-08-30T11:30:38.746Z,2.80
2022-08-30T11:33:05.444Z,2.30
2022-08-30T11:35:45.992Z,2.65
2022-08-30T11:38:20.587Z,2.25
2022-08-30T11:40:49.333Z,2.50
2022-08-30T11:43:33.863Z,3.42
2022-08-30T11:46:29.711Z,2.38
2022-08-30T11:49:05.899Z,2.30
2022-08-30T11:52:26.623Z,3.00
2022-08-30T11:55:01.702Z,2.83
2022-08-30T11:57:37.344Z,2.60
2022-08-30T12:00:07.543Z,2.22
2022-08-30T12:02:52.424Z,2.47
2022-08-30T12:05:40.877Z,2.67
2022-08-30T12:08:24.309Z,2.03
2022-08-30T12:11:09.227Z,2.42
2022-08-30T12:13:42.508Z,1.98
2022-08-30T12:16:12.122Z,2.63
2022-08-30T12:18:45.442Z,2.05
2022-08-30T12:21:17.687Z,2.22
2022-08-30T12:24:04.919Z,2.33
2022-08-30T12:26:51.519Z,2.20
2022-08-30T12:29:20.988Z,2.35
2022-08-30T12:31:53.745Z,2.20
2022-08-30T12:34:26.397Z,2.17
2022-08-30T12:37:02.968Z,2.30
2022-08-30T12:39:42.616Z,3.15
2022-08-30T12:42:30.874Z,2.47
2022-08-30T12:45:07.383Z,2.17
2022-08-30T12:47:45.043Z,2.25
2022-08-30T12:50:17.110Z,3.03
2022-08-30T12:52:46.552Z,3.17
2022-08-30T12:55:20.471Z,3.15
2022-08-30T12:58:00.531Z,3.72
2022-08-30T13:00:27.675Z,3.25
2022-08-30T13:02:57.326Z,2.70
2022-08-30T13:05:43.006Z,2.10
2022-08-30T13:08:21.410Z,3.03
2022-08-30T13:11:08.075Z,3.38
2022-08-30T13:13:44.628Z,2.28
2022-08-30T13:16:24.775Z,3.25
2022-08-30T13:19:32.687Z,2.05
2022-08-30T13:21:59.994Z,5.22
2022-08-30T13:27:03.740Z,2.13
2022-08-30T13:29:30.315Z,2.00
2022-08-30T13:31:57.269Z,2.75
2022-08-30T13:34:23.948Z,1.83
2022-08-30T13:36:55.574Z,2.72
2022-08-30T13:39:22.420Z,2.97
2022-08-30T13:41:50.119Z,2.13
2022-08-30T13:44:18.386Z,2.50
2022-08-30T13:46:53.830Z,3.05
2022-08-30T13:49:45.356Z,2.03
2022-08-30T13:52:21.285Z,2.30
2022-08-30T13:54:53.420Z,2.92
2022-08-30T14:00:15.194Z,2.20
2022-08-30T14:02:46.430Z,2.47
2022-08-30T14:05:46.799Z,3.10
2022-08-30T14:08:04.067Z,3.33
2022-08-30T14:10:32.921Z,2.10
2022-08-30T14:13:08.606Z,3.03
2022-08-30T14:15:39.333Z,2.60
2022-08-30T14:18:07.645Z,3.47
2022-08-30T14:20:38.564Z,2.20
2022-08-30T14:23:07.675Z,2.72
2022-08-30T14:25:37.081Z,2.10
2022-08-30T14:28:03.945Z,2.10
2022-08-30T14:32:59.946Z,2.40
2022-08-30T14:35:26.639Z,2.38
2022-08-30T14:37:54.134Z,2.13
2022-08-30T14:40:20.866Z,3.08
2022-08-30T14:42:47.446Z,2.95
2022-08-30T14:45:14.230Z,2.20
2022-08-30T14:47:40.784Z,2.22
2022-08-30T14:50:08.253Z,2.00
2022-08-30T14:52:35.469Z,2.20
2022-08-30T14:55:09.545Z,2.83
2022-08-30T14:57:38.267Z,2.80
2022-08-30T15:00:07.436Z,2.30
2022-08-30T15:02:33.994Z,2.10
2022-08-30T15:05:00.512Z,2.00
2022-08-30T15:07:27.074Z,2.92
2022-08-30T15:09:53.739Z,3.95
2022-08-30T15:12:20.302Z,4.55
2022-08-30T15:14:46.897Z,2.75
2022-08-30T15:17:13.482Z,4.55
2022-08-30T15:19:40.003Z,3.58
2022-08-30T15:22:07.441Z,4.70
2022-08-30T15:24:35.136Z,3.65
2022-08-30T15:29:30.704Z,3.15
2022-08-30T15:31:59.761Z,2.78
2022-08-30T15:34:28.105Z,2.40
2022-08-30T15:36:55.960Z,3.28
2022-08-30T15:41:57.088Z,3.55
2022-08-30T15:44:25.417Z,2.28
2022-08-30T15:46:52.353Z,2.03
2022-08-30T15:49:22.693Z,2.35
2022-08-30T15:51:53.955Z,2.25
2022-08-30T15:54:22.893Z,3.60
2022-08-30T15:56:49.464Z,2.50
2022-08-30T15:59:17.557Z,2.40
2022-08-30T16:01:45.352Z,4.78
2022-08-30T16:04:14.878Z,2.70
2022-08-30T16:06:41.740Z,3.20
2022-08-30T16:09:09.886Z,3.20
2022-08-30T16:11:37.430Z,2.70
2022-08-30T16:14:05.522Z,2.15
2022-08-30T16:16:32.456Z,2.88
2022-08-30T16:21:32.268Z,5.80
2022-08-30T16:24:01.228Z,8.23
2022-08-30T16:26:30.249Z,3.85
2022-08-30T16:28:57.334Z,4.97
2022-08-30T16:31:26.111Z,3.05
2022-08-30T16:33:53.811Z,3.97
2022-08-30T16:36:22.172Z,3.90
2022-08-30T16:38:49.550Z,6.05
2022-08-30T16:41:21.778Z,4.05
2022-08-30T16:43:49.591Z,5.45
2022-08-30T16:46:23.237Z,4.97
2022-08-30T16:48:56.622Z,8.63
2022-08-30T16:51:25.378Z,5.80
2022-08-30T16:53:54.759Z,3.05
2022-08-30T16:56:24.439Z,5.82
2022-08-30T16:59:00.445Z,4.18
2022-08-30T17:01:28.593Z,7.15
2022-08-30T17:03:55.398Z,4.57
2022-08-30T17:06:21.937Z,4.25
2022-08-30T17:08:48.563Z,5.85
2022-08-30T17:11:22.358Z,4.78
2022-08-30T17:13:48.889Z,4.82
2022-08-30T17:16:17.577Z,4.30
2022-08-30T17:18:55.042Z,4.18
2022-08-30T17:23:49.865Z,4.10
2022-08-30T17:26:16.862Z,4.53
2022-08-30T17:28:43.879Z,5.85
2022-08-30T17:33:39.831Z,6.10
2022-08-30T17:36:07.330Z,4.38
2022-08-30T17:38:34.341Z,4.65
2022-08-30T17:41:09.446Z,3.33
2022-08-30T17:43:37.346Z,5.35
2022-08-30T17:46:13.286Z,3.75
2022-08-30T17:48:40.975Z,5.57
2022-08-30T17:51:08.014Z,3.50
2022-08-30T17:53:35.119Z,4.68
2022-08-30T17:56:02.185Z,3.50
2022-08-30T17:58:28.986Z,6.55
2022-08-30T18:01:05.970Z,6.20
2022-08-30T18:03:38.415Z,8.13
2022-08-30T18:06:05.438Z,6.43
2022-08-30T18:10:59.244Z,4.47
2022-08-30T18:13:25.862Z,4.35
2022-08-30T18:15:52.448Z,4.90
2022-08-30T18:18:19.204Z,4.13
2022-08-30T18:20:46.253Z,4.97
2022-08-30T18:23:13.744Z,4.40
2022-08-30T18:25:40.815Z,4.70
2022-08-30T18:30:39.980Z,3.50
2022-08-30T18:33:08.106Z,5.50
2022-08-30T18:35:34.619Z,3.72
2022-08-30T18:38:03.615Z,3.97
2022-08-30T18:40:30.642Z,3.85
2022-08-30T18:42:57.188Z,4.35
2022-08-30T18:45:23.942Z,3.95
2022-08-30T18:47:50.616Z,5.15
2022-08-30T18:50:17.320Z,3.78
2022-08-30T18:52:46.656Z,3.20
2022-08-30T18:55:13.227Z,2.92
2022-08-30T18:57:39.767Z,5.00
2022-08-30T19:00:10.432Z,2.85
2022-08-30T19:02:39.076Z,4.53
2022-08-30T19:05:10.471Z,2.42
2022-08-30T19:07:37.563Z,3.92
2022-08-30T19:10:07.093Z,5.20
2022-08-30T19:12:33.783Z,3.65
2022-08-30T19:15:00.486Z,3.47
2022-08-30T19:17:27.861Z,4.55
2022-08-30T19:19:55.145Z,4.30
2022-08-30T19:25:10.846Z,3.30
2022-08-30T19:27:39.999Z,3.53
2022-08-30T19:33:01.520Z,3.80
2022-08-30T19:35:29.950Z,3.85
2022-08-30T19:37:57.430Z,5.97
2022-08-30T19:40:24.061Z,3.60
2022-08-30T19:42:53.477Z,3.58
2022-08-30T19:45:21.598Z,2.80
2022-08-30T19:47:49.671Z,3.70
2022-08-30T19:50:17.456Z,3.53
2022-08-30T19:52:48.391Z,3.97
2022-08-30T19:55:19.430Z,3.50
2022-08-30T19:57:50.587Z,4.35
2022-08-30T20:00:20.598Z,4.10
2022-08-30T20:02:50.768Z,4.80
2022-08-30T20:05:18.623Z,6.00
2022-08-30T20:07:45.233Z,4.10
2022-08-30T20:10:15.854Z,5.88
2022-08-30T20:12:46.898Z,3.30
2022-08-30T20:18:02.493Z,3.15
2022-08-30T20:20:31.643Z,4.40
2022-08-30T20:22:59.931Z,3.20
2022-08-30T20:24:33.242Z,2.92
2022-08-30T20:25:28.753Z,3.75
2022-08-30T20:27:56.002Z,4.57
2022-08-30T20:30:22.544Z,4.88
2022-08-30T20:32:49.447Z,4.10
2022-08-30T20:35:17.578Z,4.65
2022-08-30T20:37:44.476Z,3.25
2022-08-30T20:40:15.521Z,2.97
2022-08-30T20:42:45.467Z,3.50
2022-08-30T20:45:15.221Z,3.42
2022-08-30T20:47:42.857Z,4.28
2022-08-30T20:50:13.686Z,3.72
2022-08-30T20:52:41.449Z,3.33
2022-08-30T20:55:10.035Z,3.55
2022-08-30T20:57:36.634Z,3.97
2022-08-30T21:00:06.914Z,5.35
2022-08-30T21:02:34.334Z,3.47
2022-08-30T21:05:00.954Z,4.07
2022-08-30T21:07:27.572Z,3.33
2022-08-30T21:09:54.378Z,2.97
2022-08-30T21:12:20.946Z,4.43
2022-08-30T21:14:47.476Z,2.92
2022-08-30T21:17:14.030Z,2.55
2022-08-30T21:19:43.832Z,2.25
2022-08-30T21:22:11.516Z,3.30
2022-08-30T21:27:04.687Z,3.28
2022-08-30T21:29:32.966Z,3.55
2022-08-30T21:31:59.490Z,2.40
2022-08-30T21:34:26.027Z,2.83
2022-08-30T21:36:52.585Z,3.20
2022-08-30T21:39:27.343Z,3.60
2022-08-30T21:41:56.977Z,4.10
2022-08-30T21:44:26.839Z,8.25
2022-08-30T21:46:54.242Z,2.55
2022-08-30T21:49:22.916Z,3.28
2022-08-30T21:51:51.942Z,1.92
2022-08-30T21:54:19.351Z,3.85
2022-08-30T21:56:48.168Z,2.28
2022-08-30T21:59:15.171Z,2.25
2022-08-30T22:01:43.330Z,2.28
2022-08-30T22:04:11.635Z,2.67
2022-08-30T22:06:40.923Z,2.40
2022-08-30T22:09:10.073Z,2.63
2022-08-30T22:11:37.424Z,3.15
2022-08-30T22:14:04.794Z,2.83
2022-08-30T22:16:31.480Z,1.90
2022-08-30T22:18:58.171Z,2.30
2022-08-30T22:21:28.054Z,3.35
2022-08-30T22:23:55.199Z,2.30
2022-08-30T22:26:22.647Z,3.20
2022-08-30T22:28:50.129Z,2.53
2022-08-30T22:31:17.954Z,2.78
2022-08-30T22:33:47.007Z,2.78
2022-08-30T22:36:20.567Z,2.70
2022-08-30T22:38:48.614Z,3.00
2022-08-30T22:41:17.910Z,2.63
2022-08-30T22:43:44.983Z,1.90
2022-08-30T22:46:12.213Z,2.47
2022-08-30T22:51:07.198Z,2.53
2022-08-30T22:53:34.070Z,2.60
2022-08-30T22:56:00.786Z,1.80
2022-08-30T22:58:27.324Z,3.13
2022-08-30T23:00:54.775Z,1.88
2022-08-30T23:03:21.843Z,3.15
2022-08-30T23:05:48.429Z,1.92
2022-08-30T23:08:14.942Z,3.65
2022-08-30T23:10:41.524Z,2.75
2022-08-30T23:13:08.067Z,2.75
2022-08-30T23:15:34.767Z,2.03
2022-08-30T23:18:01.310Z,1.98
2022-08-30T23:20:27.872Z,2.15
2022-08-30T23:23:00.182Z,1.70
2022-08-30T23:25:51.805Z,2.05
2022-08-30T23:28:38.747Z,2.15
2022-08-30T23:31:27.923Z,2.40
2022-08-30T23:34:13.162Z,1.70
2022-08-30T23:36:58.054Z,2.05
2022-08-30T23:39:43.252Z,2.22
2022-08-30T23:42:28.102Z,3.25
2022-08-30T23:45:13.231Z,2.05
2022-08-30T23:47:58.450Z,2.28
2022-08-30T23:50:43.222Z,2.55
2022-08-30T23:53:28.527Z,3.15
2022-08-30T23:56:13.960Z,2.05
